createdAt,value
2023-02-19T00:01:47.452Z,3.55
2023-02-19T00:06:50.239Z,2.95
2023-02-19T00:11:52.514Z,3.15
2023-02-19T00:16:54.823Z,2.97
2023-02-19T00:21:57.218Z,2.70
2023-02-19T00:26:59.486Z,3.63
2023-02-19T00:32:02.043Z,3.65
2023-02-19T00:37:05.476Z,3.13
2023-02-19T00:42:07.744Z,3.10
2023-02-19T00:47:10.588Z,4.43
2023-02-19T00:52:14.527Z,3.42
2023-02-19T00:57:17.041Z,3.15
2023-02-19T01:02:19.393Z,4.90
2023-02-19T01:07:21.690Z,4.05
2023-02-19T01:12:25.889Z,2.50
2023-02-19T01:17:28.303Z,2.95
2023-02-19T01:22:30.561Z,3.45
2023-02-19T01:27:32.836Z,3.30
2023-02-19T01:32:35.241Z,3.17
2023-02-19T01:37:37.905Z,2.60
2023-02-19T01:42:44.247Z,3.00
2023-02-19T01:47:50.045Z,2.42
2023-02-19T01:52:52.448Z,2.55
2023-02-19T01:57:56.465Z,2.00
2023-02-19T02:02:59.961Z,1.83
2023-02-19T02:08:21.845Z,1.85
2023-02-19T02:13:24.646Z,1.92
2023-02-19T02:18:35.689Z,1.85
2023-02-19T02:23:44.770Z,2.10
2023-02-19T02:28:47.597Z,1.33
2023-02-19T02:34:32.724Z,1.05
2023-02-19T02:39:36.775Z,1.63
2023-02-19T02:44:41.111Z,1.25
2023-02-19T02:50:03.472Z,1.63
2023-02-19T02:55:11.016Z,1.20
2023-02-19T03:00:14.960Z,0.95
2023-02-19T03:05:40.510Z,2.10
2023-02-19T03:10:59.470Z,2.13
2023-02-19T03:16:30.765Z,2.20
2023-02-19T03:21:36.414Z,1.55
2023-02-19T03:26:45.845Z,1.98
2023-02-19T03:31:55.153Z,1.65
2023-02-19T03:37:13.308Z,2.20
2023-02-19T03:42:49.464Z,2.40
2023-02-19T03:48:06.669Z,2.45
2023-02-19T03:53:23.649Z,1.77
2023-02-19T03:58:51.173Z,2.35
2023-02-19T04:03:57.477Z,1.25
2023-02-19T04:09:08.527Z,1.83
2023-02-19T04:14:21.811Z,1.90
2023-02-19T04:19:27.604Z,1.25
2023-02-19T04:24:41.518Z,2.75
2023-02-19T04:29:43.940Z,1.15
2023-02-19T04:34:46.383Z,1.33
2023-02-19T04:39:48.953Z,2.05
2023-02-19T04:44:51.590Z,0.90
2023-02-19T04:49:54.446Z,2.15
2023-02-19T04:54:58.179Z,1.65
2023-02-19T05:00:00.577Z,3.05
2023-02-19T05:05:02.998Z,1.20
2023-02-19T05:10:05.888Z,0.90
2023-02-19T05:15:08.529Z,1.52
2023-02-19T05:20:11.302Z,1.75
2023-02-19T05:25:15.844Z,3.38
2023-02-19T05:30:18.360Z,2.00
2023-02-19T05:35:20.793Z,1.45
2023-02-19T05:40:24.636Z,3.47
2023-02-19T05:45:27.091Z,1.40
2023-02-19T05:50:32.326Z,1.30
2023-02-19T05:55:47.174Z,1.20
2023-02-19T06:00:51.129Z,1.50
2023-02-19T06:05:53.571Z,3.10
2023-02-19T06:10:59.984Z,1.83
2023-02-19T06:16:07.570Z,1.48
2023-02-19T06:21:12.084Z,1.15
2023-02-19T06:26:22.142Z,1.65
2023-02-19T06:31:25.554Z,2.03
2023-02-19T06:36:28.547Z,1.02
2023-02-19T06:41:31.206Z,0.82
2023-02-19T06:46:36.781Z,1.15
2023-02-19T06:51:39.567Z,1.10
2023-02-19T06:56:42.449Z,1.17
2023-02-19T07:01:47.081Z,0.80
2023-02-19T07:06:49.602Z,0.45
2023-02-19T07:11:52.530Z,0.60
2023-02-19T07:16:57.329Z,2.05
2023-02-19T07:21:59.809Z,0.70
2023-02-19T07:27:03.875Z,0.98
2023-02-19T07:32:06.452Z,1.05
2023-02-19T07:37:09.965Z,1.02
2023-02-19T07:42:14.493Z,0.95
2023-02-19T07:47:21.610Z,1.10
2023-02-19T07:52:24.272Z,1.35
2023-02-19T07:57:29.216Z,1.13
2023-02-19T08:02:50.075Z,1.17
2023-02-19T08:07:52.337Z,2.13
2023-02-19T08:13:17.786Z,2.92
2023-02-19T08:18:23.547Z,1.00
2023-02-19T08:23:26.844Z,0.80
2023-02-19T08:28:30.428Z,0.63
2023-02-19T08:33:33.174Z,0.38
2023-02-19T08:38:37.095Z,0.63
2023-02-19T08:43:41.268Z,0.60
2023-02-19T08:48:43.551Z,1.27
2023-02-19T08:53:46.235Z,0.75
2023-02-19T08:58:48.538Z,0.77
2023-02-19T09:03:50.936Z,1.40
2023-02-19T09:08:53.492Z,0.68
2023-02-19T09:13:57.065Z,0.35
2023-02-19T09:18:59.458Z,0.70
2023-02-19T09:24:01.752Z,0.60
2023-02-19T09:29:04.022Z,1.20
2023-02-19T09:34:06.840Z,1.52
2023-02-19T09:39:12.582Z,0.85
2023-02-19T09:44:23.985Z,1.10
2023-02-19T09:49:38.956Z,0.98
2023-02-19T09:54:42.648Z,2.05
2023-02-19T09:59:59.140Z,1.58
2023-02-19T10:05:03.182Z,0.70
2023-02-19T10:10:17.946Z,0.80
2023-02-19T10:15:31.796Z,0.63
2023-02-19T10:20:34.236Z,1.85
2023-02-19T10:25:40.689Z,0.75
2023-02-19T10:30:44.145Z,0.55
2023-02-19T10:35:57.411Z,0.57
2023-02-19T10:41:02.280Z,0.95
2023-02-19T10:46:16.128Z,0.93
2023-02-19T10:51:22.019Z,0.60
2023-02-19T10:56:32.117Z,1.23
2023-02-19T11:01:34.345Z,0.32
2023-02-19T11:06:36.963Z,0.40
2023-02-19T11:11:41.008Z,0.30
2023-02-19T11:16:57.643Z,0.40
2023-02-19T11:22:01.911Z,2.20
2023-02-19T11:27:07.707Z,0.68
2023-02-19T11:32:35.448Z,0.98
2023-02-19T11:43:09.971Z,0.35
2023-02-19T11:48:17.488Z,0.50
2023-02-19T11:53:34.576Z,0.20
2023-02-19T11:59:02.235Z,0.28
2023-02-19T12:04:34.265Z,0.50
2023-02-19T12:09:43.534Z,0.30
2023-02-19T12:15:20.335Z,0.50
2023-02-19T12:21:04.878Z,0.25
2023-02-19T12:26:24.554Z,0.30
2023-02-19T12:31:48.050Z,0.20
2023-02-19T12:37:05.546Z,0.40
2023-02-19T12:42:45.004Z,0.30
2023-02-19T12:47:59.121Z,0.30
2023-02-19T12:53:39.592Z,0.50
2023-02-19T12:58:51.111Z,0.28
2023-02-19T13:04:17.622Z,0.68
2023-02-19T13:09:31.867Z,0.40
2023-02-19T13:14:48.176Z,0.30
2023-02-19T13:19:54.868Z,0.20
2023-02-19T13:24:58.827Z,0.80
2023-02-19T13:30:22.848Z,0.50
2023-02-19T13:36:10.628Z,0.38
2023-02-19T13:41:27.927Z,0.38
2023-02-19T13:46:49.820Z,0.22
2023-02-19T13:52:03.155Z,0.32
2023-02-19T13:57:23.700Z,0.38
2023-02-19T14:02:35.405Z,0.10
2023-02-19T14:07:53.989Z,0.28
2023-02-19T14:12:56.235Z,2.65
2023-02-19T14:17:58.643Z,0.63
2023-02-19T14:23:14.879Z,0.40
2023-02-19T14:28:30.885Z,0.30
2023-02-19T14:33:36.201Z,0.30
2023-02-19T14:39:01.254Z,0.20
2023-02-19T14:44:12.918Z,0.15
2023-02-19T14:49:25.322Z,0.45
2023-02-19T14:54:40.737Z,0.68
2023-02-19T15:00:02.349Z,0.20
2023-02-19T15:05:19.530Z,0.20
2023-02-19T15:10:24.022Z,0.20
2023-02-19T15:15:30.538Z,0.20
2023-02-19T15:20:35.918Z,0.28
2023-02-19T15:25:42.305Z,0.40
2023-02-19T15:30:44.531Z,0.32
2023-02-19T15:36:15.176Z,0.40
2023-02-19T15:41:23.120Z,0.47
2023-02-19T15:46:25.906Z,0.47
2023-02-19T15:51:47.691Z,0.40
2023-02-19T15:56:50.736Z,0.38
2023-02-19T16:01:53.289Z,0.63
2023-02-19T16:06:59.246Z,0.60
2023-02-19T16:12:03.872Z,0.40
2023-02-19T16:17:12.335Z,0.30
2023-02-19T16:22:22.702Z,0.30
2023-02-19T16:27:29.472Z,0.32
2023-02-19T16:32:32.447Z,0.32
2023-02-19T16:37:38.840Z,0.22
2023-02-19T16:42:49.887Z,0.20
2023-02-19T16:47:52.058Z,0.30
2023-02-19T16:53:07.085Z,0.50
2023-02-19T16:58:11.277Z,0.32
2023-02-19T17:03:21.326Z,0.47
2023-02-19T17:08:34.351Z,0.55
2023-02-19T17:13:36.594Z,0.80
2023-02-19T17:18:40.518Z,0.70
2023-02-19T17:23:44.993Z,1.00
2023-02-19T17:28:48.034Z,1.33
2023-02-19T17:33:52.384Z,1.10
2023-02-19T17:38:54.876Z,1.00
2023-02-19T17:43:58.064Z,0.45
2023-02-19T17:49:02.413Z,0.30
2023-02-19T17:54:06.346Z,0.90
2023-02-19T17:59:13.445Z,4.20
2023-02-19T18:04:17.172Z,5.40
2023-02-19T18:09:21.894Z,3.70
2023-02-19T18:14:24.542Z,5.93
2023-02-19T18:19:29.455Z,5.45
2023-02-19T18:24:31.632Z,4.82
2023-02-19T18:29:35.125Z,5.43
2023-02-19T18:34:37.941Z,4.50
2023-02-19T18:39:40.394Z,5.13
2023-02-19T18:44:44.868Z,4.88
2023-02-19T18:49:48.754Z,7.68
2023-02-19T18:54:52.622Z,14.00
2023-02-19T18:59:54.976Z,11.52
2023-02-19T19:04:58.341Z,10.52
2023-02-19T19:10:00.621Z,11.43
2023-02-19T19:15:02.935Z,9.63
2023-02-19T19:20:05.841Z,11.38
2023-02-19T19:25:09.091Z,12.20
2023-02-19T19:30:13.335Z,8.60
2023-02-19T19:35:22.690Z,10.07
2023-02-19T19:45:27.334Z,13.27
2023-02-19T19:50:30.115Z,12.13
2023-02-19T19:55:32.428Z,11.13
2023-02-19T20:00:34.741Z,13.80
2023-02-19T20:05:37.075Z,12.57
2023-02-19T20:10:39.386Z,13.80
2023-02-19T20:15:41.695Z,12.82
2023-02-19T20:20:43.949Z,13.68
2023-02-19T20:25:49.116Z,11.13
2023-02-19T20:30:52.430Z,10.65
2023-02-19T20:35:56.861Z,14.73
2023-02-19T20:41:00.545Z,14.98
2023-02-19T20:46:02.905Z,11.65
2023-02-19T20:51:06.836Z,11.73
2023-02-19T20:56:11.922Z,13.88
2023-02-19T21:01:14.429Z,11.90
2023-02-19T21:06:16.837Z,10.88
2023-02-19T21:11:20.960Z,10.60
2023-02-19T21:16:24.406Z,9.00
2023-02-19T21:21:27.635Z,11.45
2023-02-19T21:26:37.749Z,12.50
2023-02-19T21:31:52.149Z,9.38
2023-02-19T21:36:55.796Z,10.05
2023-02-19T21:42:01.112Z,7.53
2023-02-19T21:47:05.550Z,8.90
2023-02-19T21:52:12.967Z,8.27
2023-02-19T21:57:45.271Z,7.07
2023-02-19T22:03:03.791Z,9.60
2023-02-19T22:08:21.947Z,9.10
2023-02-19T22:13:30.858Z,10.02
2023-02-19T22:18:37.725Z,9.45
2023-02-19T22:23:47.458Z,8.50
2023-02-19T22:29:04.998Z,8.90
2023-02-19T22:34:15.019Z,7.35
2023-02-19T22:39:31.225Z,8.00
2023-02-19T22:44:37.925Z,6.85
2023-02-19T22:49:43.957Z,6.25
2023-02-19T22:55:01.286Z,7.05
2023-02-19T23:00:14.964Z,5.80
2023-02-19T23:06:00.115Z,7.05
2023-02-19T23:11:13.617Z,7.07
2023-02-19T23:16:16.562Z,7.55
2023-02-19T23:21:24.367Z,5.45
2023-02-19T23:26:32.531Z,5.70
2023-02-19T23:31:39.564Z,6.90
2023-02-19T23:36:53.319Z,5.72
2023-02-19T23:42:19.525Z,5.93
2023-02-19T23:47:30.714Z,7.40
2023-02-19T23:52:56.967Z,5.13
